sensor_id;sensor_type;location;lat;lon;timestamp;P1;durP1;ratioP1;P2;durP2;ratioP2
1460;SDS011;724;49.910;12.530;2024-02-26T00:01:27;13.50;;;12.80;;
1460;SDS011;724;49.910;12.530;2024-02-26T00:03:57;13.68;;;12.98;;
1460;SDS011;724;49.910;12.530;2024-02-26T00:06:25;13.23;;;12.52;;
1460;SDS011;724;49.910;12.530;2024-02-26T00:08:52;12.88;;;12.18;;
1460;SDS011;724;49.910;12.530;2024-02-26T00:11:20;12.50;;;11.90;;
1460;SDS011;724;49.910;12.530;2024-02-26T00:13:46;12.70;;;12.00;;
1460;SDS011;724;49.910;12.530;2024-02-26T00:16:13;13.10;;;12.40;;
1460;SDS011;724;49.910;12.530;2024-02-26T00:18:40;13.27;;;12.57;;
1460;SDS011;724;49.910;12.530;2024-02-26T00:21:06;13.43;;;12.73;;
1460;SDS011;724;49.910;12.530;2024-02-26T00:23:33;13.55;;;12.85;;
1460;SDS011;724;49.910;12.530;2024-02-26T00:26:00;12.30;;;11.70;;
1460;SDS011;724;49.910;12.530;2024-02-26T00:28:28;13.57;;;12.88;;
1460;SDS011;724;49.910;12.530;2024-02-26T00:30:55;13.40;;;12.70;;
1460;SDS011;724;49.910;12.530;2024-02-26T00:33:22;13.15;;;12.45;;
1460;SDS011;724;49.910;12.530;2024-02-26T00:35:48;13.20;;;12.50;;
1460;SDS011;724;49.910;12.530;2024-02-26T00:38:15;13.63;;;12.93;;
1460;SDS011;724;49.910;12.530;2024-02-26T00:40:42;13.20;;;12.50;;
1460;SDS011;724;49.910;12.530;2024-02-26T00:43:09;13.13;;;12.43;;
1460;SDS011;724;49.910;12.530;2024-02-26T00:45:37;13.10;;;12.40;;
1460;SDS011;724;49.910;12.530;2024-02-26T00:48:04;13.32;;;12.63;;
1460;SDS011;724;49.910;12.530;2024-02-26T00:50:32;12.82;;;12.13;;
1460;SDS011;724;49.910;12.530;2024-02-26T00:52:59;13.10;;;12.40;;
1460;SDS011;724;49.910;12.530;2024-02-26T00:55:26;13.05;;;12.35;;
1460;SDS011;724;49.910;12.530;2024-02-26T00:57:52;13.35;;;12.65;;
1460;SDS011;724;49.910;12.530;2024-02-26T01:00:19;12.90;;;12.20;;
1460;SDS011;724;49.910;12.530;2024-02-26T01:02:47;13.88;;;13.18;;
1460;SDS011;724;49.910;12.530;2024-02-26T01:05:14;13.50;;;12.80;;
1460;SDS011;724;49.910;12.530;2024-02-26T01:07:41;13.40;;;12.70;;
1460;SDS011;724;49.910;12.530;2024-02-26T01:10:08;13.00;;;12.30;;
1460;SDS011;724;49.910;12.530;2024-02-26T01:12:35;13.40;;;12.70;;
1460;SDS011;724;49.910;12.530;2024-02-26T01:15:02;13.85;;;13.15;;
1460;SDS011;724;49.910;12.530;2024-02-26T01:17:30;13.60;;;12.90;;
1460;SDS011;724;49.910;12.530;2024-02-26T01:19:58;13.80;;;13.10;;
1460;SDS011;724;49.910;12.530;2024-02-26T01:22:25;13.32;;;12.63;;
1460;SDS011;724;49.910;12.530;2024-02-26T01:24:51;13.30;;;12.60;;
1460;SDS011;724;49.910;12.530;2024-02-26T01:27:18;12.93;;;12.23;;
1460;SDS011;724;49.910;12.530;2024-02-26T01:29:45;13.20;;;12.50;;
1460;SDS011;724;49.910;12.530;2024-02-26T01:32:12;13.05;;;12.35;;
1460;SDS011;724;49.910;12.530;2024-02-26T01:34:38;12.30;;;11.70;;
1460;SDS011;724;49.910;12.530;2024-02-26T01:37:06;12.70;;;12.00;;
1460;SDS011;724;49.910;12.530;2024-02-26T01:39:33;12.50;;;11.90;;
1460;SDS011;724;49.910;12.530;2024-02-26T01:42:00;12.70;;;12.00;;
1460;SDS011;724;49.910;12.530;2024-02-26T01:44:27;12.50;;;11.90;;
1460;SDS011;724;49.910;12.530;2024-02-26T01:46:54;13.02;;;12.32;;
1460;SDS011;724;49.910;12.530;2024-02-26T01:49:21;13.00;;;12.30;;
1460;SDS011;724;49.910;12.530;2024-02-26T01:51:48;12.35;;;11.75;;
1460;SDS011;724;49.910;12.530;2024-02-26T01:54:16;12.80;;;12.10;;
1460;SDS011;724;49.910;12.530;2024-02-26T01:56:44;11.75;;;11.15;;
1460;SDS011;724;49.910;12.530;2024-02-26T01:59:10;13.02;;;12.32;;
1460;SDS011;724;49.910;12.530;2024-02-26T02:01:37;12.88;;;12.18;;
1460;SDS011;724;49.910;12.530;2024-02-26T02:04:08;12.80;;;12.10;;
1460;SDS011;724;49.910;12.530;2024-02-26T02:06:35;12.70;;;12.00;;
1460;SDS011;724;49.910;12.530;2024-02-26T02:09:04;13.00;;;12.30;;
1460;SDS011;724;49.910;12.530;2024-02-26T02:11:33;13.05;;;12.35;;
1460;SDS011;724;49.910;12.530;2024-02-26T02:14:01;13.20;;;12.50;;
1460;SDS011;724;49.910;12.530;2024-02-26T02:16:27;13.25;;;12.55;;
1460;SDS011;724;49.910;12.530;2024-02-26T02:18:54;13.45;;;12.75;;
1460;SDS011;724;49.910;12.530;2024-02-26T02:21:22;13.52;;;12.82;;
1460;SDS011;724;49.910;12.530;2024-02-26T02:23:49;13.70;;;13.00;;
1460;SDS011;724;49.910;12.530;2024-02-26T02:26:15;13.68;;;12.98;;
1460;SDS011;724;49.910;12.530;2024-02-26T02:28:43;13.10;;;12.40;;
1460;SDS011;724;49.910;12.530;2024-02-26T02:31:11;13.80;;;13.10;;
1460;SDS011;724;49.910;12.530;2024-02-26T02:33:38;13.75;;;13.05;;
1460;SDS011;724;49.910;12.530;2024-02-26T02:36:05;13.60;;;12.90;;
1460;SDS011;724;49.910;12.530;2024-02-26T02:38:36;13.70;;;13.00;;
1460;SDS011;724;49.910;12.530;2024-02-26T02:41:03;13.45;;;12.75;;
1460;SDS011;724;49.910;12.530;2024-02-26T02:43:30;13.68;;;12.98;;
1460;SDS011;724;49.910;12.530;2024-02-26T02:45:57;12.50;;;11.90;;
1460;SDS011;724;49.910;12.530;2024-02-26T02:48:23;13.60;;;12.90;;
1460;SDS011;724;49.910;12.530;2024-02-26T02:50:50;13.23;;;12.52;;
1460;SDS011;724;49.910;12.530;2024-02-26T02:53:17;12.90;;;12.20;;
1460;SDS011;724;49.910;12.530;2024-02-26T02:55:45;12.90;;;12.20;;
1460;SDS011;724;49.910;12.530;2024-02-26T02:58:12;13.13;;;12.43;;
1460;SDS011;724;49.910;12.530;2024-02-26T03:00:39;13.23;;;12.52;;
1460;SDS011;724;49.910;12.530;2024-02-26T03:03:05;13.30;;;12.60;;
1460;SDS011;724;49.910;12.530;2024-02-26T03:05:32;12.77;;;12.07;;
1460;SDS011;724;49.910;12.530;2024-02-26T03:07:59;12.60;;;11.95;;
1460;SDS011;724;49.910;12.530;2024-02-26T03:10:25;13.30;;;12.60;;
1460;SDS011;724;49.910;12.530;2024-02-26T03:12:54;14.30;;;13.60;;
1460;SDS011;724;49.910;12.530;2024-02-26T03:15:21;12.90;;;12.20;;
1460;SDS011;724;49.910;12.530;2024-02-26T03:17:48;13.10;;;12.40;;
1460;SDS011;724;49.910;12.530;2024-02-26T03:20:14;13.90;;;13.20;;
1460;SDS011;724;49.910;12.530;2024-02-26T03:22:44;13.70;;;13.00;;
1460;SDS011;724;49.910;12.530;2024-02-26T03:25:11;13.40;;;12.70;;
1460;SDS011;724;49.910;12.530;2024-02-26T03:27:38;13.43;;;12.73;;
1460;SDS011;724;49.910;12.530;2024-02-26T03:30:06;13.60;;;12.90;;
1460;SDS011;724;49.910;12.530;2024-02-26T03:32:33;13.68;;;12.98;;
1460;SDS011;724;49.910;12.530;2024-02-26T03:35:00;13.85;;;13.15;;
1460;SDS011;724;49.910;12.530;2024-02-26T03:37:27;14.10;;;13.40;;
1460;SDS011;724;49.910;12.530;2024-02-26T03:39:54;14.30;;;13.60;;
1460;SDS011;724;49.910;12.530;2024-02-26T03:42:22;13.90;;;13.20;;
1460;SDS011;724;49.910;12.530;2024-02-26T03:44:48;13.60;;;12.90;;
1460;SDS011;724;49.910;12.530;2024-02-26T03:47:17;14.00;;;13.30;;
1460;SDS011;724;49.910;12.530;2024-02-26T03:49:43;14.02;;;13.32;;
1460;SDS011;724;49.910;12.530;2024-02-26T03:52:10;14.27;;;13.57;;
1460;SDS011;724;49.910;12.530;2024-02-26T03:54:37;14.80;;;14.00;;
1460;SDS011;724;49.910;12.530;2024-02-26T03:57:04;14.10;;;13.40;;
1460;SDS011;724;49.910;12.530;2024-02-26T03:59:30;14.50;;;13.80;;
1460;SDS011;724;49.910;12.530;2024-02-26T04:01:57;14.85;;;14.05;;
1460;SDS011;724;49.910;12.530;2024-02-26T04:04:28;14.80;;;14.00;;
1460;SDS011;724;49.910;12.530;2024-02-26T04:06:54;15.07;;;14.27;;
1460;SDS011;724;49.910;12.530;2024-02-26T04:09:21;14.27;;;13.57;;
1460;SDS011;724;49.910;12.530;2024-02-26T04:11:48;14.95;;;14.15;;
1460;SDS011;724;49.910;12.530;2024-02-26T04:14:15;15.00;;;14.20;;
1460;SDS011;724;49.910;12.530;2024-02-26T04:16:41;15.00;;;14.20;;
1460;SDS011;724;49.910;12.530;2024-02-26T04:19:08;15.25;;;14.45;;
1460;SDS011;724;49.910;12.530;2024-02-26T04:21:36;15.40;;;14.60;;
1460;SDS011;724;49.910;12.530;2024-02-26T04:24:03;15.10;;;14.30;;
1460;SDS011;724;49.910;12.530;2024-02-26T04:26:30;15.35;;;14.55;;
1460;SDS011;724;49.910;12.530;2024-02-26T04:28:57;15.20;;;14.40;;
1460;SDS011;724;49.910;12.530;2024-02-26T04:31:24;15.35;;;14.55;;
1460;SDS011;724;49.910;12.530;2024-02-26T04:33:51;14.98;;;14.18;;
1460;SDS011;724;49.910;12.530;2024-02-26T04:36:18;14.40;;;13.70;;
1460;SDS011;724;49.910;12.530;2024-02-26T04:38:46;14.60;;;13.90;;
1460;SDS011;724;49.910;12.530;2024-02-26T04:41:13;15.15;;;14.35;;
1460;SDS011;724;49.910;12.530;2024-02-26T04:43:39;15.50;;;14.70;;
1460;SDS011;724;49.910;12.530;2024-02-26T04:46:07;15.40;;;14.60;;
1460;SDS011;724;49.910;12.530;2024-02-26T04:48:34;15.23;;;14.43;;
1460;SDS011;724;49.910;12.530;2024-02-26T04:51:01;14.60;;;13.90;;
1460;SDS011;724;49.910;12.530;2024-02-26T04:53:28;14.93;;;14.13;;
1460;SDS011;724;49.910;12.530;2024-02-26T04:55:56;14.45;;;13.75;;
1460;SDS011;724;49.910;12.530;2024-02-26T04:58:23;14.10;;;13.40;;
1460;SDS011;724;49.910;12.530;2024-02-26T05:00:50;14.88;;;14.07;;
1460;SDS011;724;49.910;12.530;2024-02-26T05:03:16;15.40;;;14.60;;
1460;SDS011;724;49.910;12.530;2024-02-26T05:05:43;15.00;;;14.20;;
1460;SDS011;724;49.910;12.530;2024-02-26T05:08:10;14.88;;;14.07;;
1460;SDS011;724;49.910;12.530;2024-02-26T05:10:37;14.80;;;14.00;;
1460;SDS011;724;49.910;12.530;2024-02-26T05:13:07;14.10;;;13.40;;
1460;SDS011;724;49.910;12.530;2024-02-26T05:15:34;14.80;;;14.00;;
1460;SDS011;724;49.910;12.530;2024-02-26T05:18:01;14.35;;;13.65;;
1460;SDS011;724;49.910;12.530;2024-02-26T05:20:28;15.00;;;14.20;;
1460;SDS011;724;49.910;12.530;2024-02-26T05:22:56;14.90;;;14.10;;
1460;SDS011;724;49.910;12.530;2024-02-26T05:25:23;14.40;;;13.70;;
1460;SDS011;724;49.910;12.530;2024-02-26T05:27:52;13.98;;;13.27;;
1460;SDS011;724;49.910;12.530;2024-02-26T05:30:20;14.60;;;13.90;;
1460;SDS011;724;49.910;12.530;2024-02-26T05:32:47;13.60;;;12.90;;
1460;SDS011;724;49.910;12.530;2024-02-26T05:35:13;13.20;;;12.50;;
1460;SDS011;724;49.910;12.530;2024-02-26T05:37:41;13.55;;;12.85;;
1460;SDS011;724;49.910;12.530;2024-02-26T05:40:08;13.20;;;12.50;;
1460;SDS011;724;49.910;12.530;2024-02-26T05:42:35;12.93;;;12.23;;
1460;SDS011;724;49.910;12.530;2024-02-26T05:45:01;12.10;;;11.50;;
1460;SDS011;724;49.910;12.530;2024-02-26T05:47:32;12.30;;;11.70;;
1460;SDS011;724;49.910;12.530;2024-02-26T05:49:59;11.38;;;10.77;;
1460;SDS011;724;49.910;12.530;2024-02-26T05:52:26;11.18;;;10.57;;
1460;SDS011;724;49.910;12.530;2024-02-26T05:54:54;11.80;;;11.20;;
1460;SDS011;724;49.910;12.530;2024-02-26T05:57:21;11.65;;;11.05;;
1460;SDS011;724;49.910;12.530;2024-02-26T05:59:47;11.38;;;10.77;;
1460;SDS011;724;49.910;12.530;2024-02-26T06:02:14;12.02;;;11.43;;
1460;SDS011;724;49.910;12.530;2024-02-26T06:04:42;11.13;;;10.52;;
1460;SDS011;724;49.910;12.530;2024-02-26T06:07:09;11.25;;;10.65;;
1460;SDS011;724;49.910;12.530;2024-02-26T06:09:36;11.18;;;10.57;;
1460;SDS011;724;49.910;12.530;2024-02-26T06:12:03;10.98;;;10.38;;
1460;SDS011;724;49.910;12.530;2024-02-26T06:14:30;11.35;;;10.75;;
1460;SDS011;724;49.910;12.530;2024-02-26T06:16:56;11.38;;;10.77;;
1460;SDS011;724;49.910;12.530;2024-02-26T06:19:23;11.95;;;11.35;;
1460;SDS011;724;49.910;12.530;2024-02-26T06:21:51;11.55;;;10.95;;
1460;SDS011;724;49.910;12.530;2024-02-26T06:24:18;11.63;;;11.02;;
1460;SDS011;724;49.910;12.530;2024-02-26T06:26:46;11.80;;;11.20;;
1460;SDS011;724;49.910;12.530;2024-02-26T06:29:14;12.10;;;11.50;;
1460;SDS011;724;49.910;12.530;2024-02-26T06:31:41;11.48;;;10.88;;
1460;SDS011;724;49.910;12.530;2024-02-26T06:34:08;12.18;;;11.57;;
1460;SDS011;724;49.910;12.530;2024-02-26T06:36:35;12.60;;;11.95;;
1460;SDS011;724;49.910;12.530;2024-02-26T06:39:03;11.98;;;11.38;;
1460;SDS011;724;49.910;12.530;2024-02-26T06:41:35;11.50;;;10.90;;
1460;SDS011;724;49.910;12.530;2024-02-26T06:44:04;12.45;;;11.85;;
1460;SDS011;724;49.910;12.530;2024-02-26T06:46:31;11.93;;;11.32;;
1460;SDS011;724;49.910;12.530;2024-02-26T06:48:58;11.88;;;11.27;;
1460;SDS011;724;49.910;12.530;2024-02-26T06:51:28;11.77;;;11.18;;
1460;SDS011;724;49.910;12.530;2024-02-26T06:54:12;11.90;;;11.30;;
1460;SDS011;724;49.910;12.530;2024-02-26T06:56:38;11.00;;;10.40;;
1460;SDS011;724;49.910;12.530;2024-02-26T06:59:05;11.00;;;10.40;;
1460;SDS011;724;49.910;12.530;2024-02-26T07:01:32;11.30;;;10.70;;
1460;SDS011;724;49.910;12.530;2024-02-26T07:03:58;11.25;;;10.65;;
1460;SDS011;724;49.910;12.530;2024-02-26T07:06:25;11.60;;;11.00;;
1460;SDS011;724;49.910;12.530;2024-02-26T07:08:53;11.30;;;10.70;;
1460;SDS011;724;49.910;12.530;2024-02-26T07:11:21;11.65;;;11.05;;
1460;SDS011;724;49.910;12.530;2024-02-26T07:13:48;12.35;;;11.75;;
1460;SDS011;724;49.910;12.530;2024-02-26T07:16:15;11.30;;;10.70;;
1460;SDS011;724;49.910;12.530;2024-02-26T07:18:42;11.00;;;10.40;;
1460;SDS011;724;49.910;12.530;2024-02-26T07:21:09;10.90;;;10.30;;
1460;SDS011;724;49.910;12.530;2024-02-26T07:23:37;9.98;;;9.48;;
1460;SDS011;724;49.910;12.530;2024-02-26T07:26:04;10.77;;;10.18;;
1460;SDS011;724;49.910;12.530;2024-02-26T07:28:32;10.93;;;10.32;;
1460;SDS011;724;49.910;12.530;2024-02-26T07:30:59;10.73;;;10.13;;
1460;SDS011;724;49.910;12.530;2024-02-26T07:33:25;10.88;;;10.27;;
1460;SDS011;724;49.910;12.530;2024-02-26T07:35:52;10.98;;;10.38;;
1460;SDS011;724;49.910;12.530;2024-02-26T07:38:19;10.75;;;10.15;;
1460;SDS011;724;49.910;12.530;2024-02-26T07:40:45;10.23;;;9.73;;
1460;SDS011;724;49.910;12.530;2024-02-26T07:43:13;10.23;;;9.73;;
1460;SDS011;724;49.910;12.530;2024-02-26T07:45:41;10.70;;;10.10;;
1460;SDS011;724;49.910;12.530;2024-02-26T07:48:09;10.70;;;10.10;;
1460;SDS011;724;49.910;12.530;2024-02-26T07:50:36;10.80;;;10.20;;
1460;SDS011;724;49.910;12.530;2024-02-26T07:53:02;10.10;;;9.60;;
1460;SDS011;724;49.910;12.530;2024-02-26T07:55:29;10.02;;;9.52;;
1460;SDS011;724;49.910;12.530;2024-02-26T07:57:56;9.82;;;9.32;;
1460;SDS011;724;49.910;12.530;2024-02-26T08:00:23;9.70;;;9.20;;
1460;SDS011;724;49.910;12.530;2024-02-26T08:02:51;10.00;;;9.50;;
1460;SDS011;724;49.910;12.530;2024-02-26T08:05:18;10.02;;;9.52;;
1460;SDS011;724;49.910;12.530;2024-02-26T08:07:45;10.13;;;9.63;;
1460;SDS011;724;49.910;12.530;2024-02-26T08:10:11;10.73;;;10.13;;
1460;SDS011;724;49.910;12.530;2024-02-26T08:12:38;10.30;;;9.80;;
1460;SDS011;724;49.910;12.530;2024-02-26T08:15:06;10.10;;;9.60;;
1460;SDS011;724;49.910;12.530;2024-02-26T08:17:35;10.13;;;9.63;;
1460;SDS011;724;49.910;12.530;2024-02-26T08:20:04;10.10;;;9.60;;
1460;SDS011;724;49.910;12.530;2024-02-26T08:22:31;10.10;;;9.60;;
1460;SDS011;724;49.910;12.530;2024-02-26T08:24:58;10.20;;;9.70;;
1460;SDS011;724;49.910;12.530;2024-02-26T08:27:28;10.20;;;9.70;;
1460;SDS011;724;49.910;12.530;2024-02-26T08:29:54;10.30;;;9.80;;
1460;SDS011;724;49.910;12.530;2024-02-26T08:32:21;10.63;;;10.05;;
1460;SDS011;724;49.910;12.530;2024-02-26T08:34:48;10.30;;;9.80;;
1460;SDS011;724;49.910;12.530;2024-02-26T08:37:16;10.75;;;10.15;;
1460;SDS011;724;49.910;12.530;2024-02-26T08:39:43;10.32;;;9.82;;
1460;SDS011;724;49.910;12.530;2024-02-26T08:42:10;10.88;;;10.27;;
1460;SDS011;724;49.910;12.530;2024-02-26T08:44:37;11.20;;;10.60;;
1460;SDS011;724;49.910;12.530;2024-02-26T08:47:04;11.10;;;10.50;;
1460;SDS011;724;49.910;12.530;2024-02-26T08:49:31;11.32;;;10.73;;
1460;SDS011;724;49.910;12.530;2024-02-26T08:51:58;10.80;;;10.20;;
1460;SDS011;724;49.910;12.530;2024-02-26T08:54:26;10.75;;;10.15;;
1460;SDS011;724;49.910;12.530;2024-02-26T08:56:52;10.95;;;10.35;;
1460;SDS011;724;49.910;12.530;2024-02-26T08:59:19;10.90;;;10.30;;
1460;SDS011;724;49.910;12.530;2024-02-26T09:01:48;10.65;;;10.05;;
1460;SDS011;724;49.910;12.530;2024-02-26T09:04:14;10.55;;;9.98;;
1460;SDS011;724;49.910;12.530;2024-02-26T09:06:41;10.80;;;10.20;;
1460;SDS011;724;49.910;12.530;2024-02-26T09:09:08;10.60;;;10.00;;
1460;SDS011;724;49.910;12.530;2024-02-26T09:11:36;11.27;;;10.68;;
1460;SDS011;724;49.910;12.530;2024-02-26T09:14:03;10.50;;;9.95;;
1460;SDS011;724;49.910;12.530;2024-02-26T09:16:29;11.00;;;10.40;;
1460;SDS011;724;49.910;12.530;2024-02-26T09:18:56;10.60;;;10.00;;
1460;SDS011;724;49.910;12.530;2024-02-26T09:21:23;10.80;;;10.20;;
1460;SDS011;724;49.910;12.530;2024-02-26T09:23:51;10.38;;;9.88;;
1460;SDS011;724;49.910;12.530;2024-02-26T09:26:18;10.60;;;10.00;;
1460;SDS011;724;49.910;12.530;2024-02-26T09:28:46;11.20;;;10.60;;
1460;SDS011;724;49.910;12.530;2024-02-26T09:31:14;11.13;;;10.52;;
1460;SDS011;724;49.910;12.530;2024-02-26T09:33:42;11.57;;;10.98;;
1460;SDS011;724;49.910;12.530;2024-02-26T09:36:09;11.20;;;10.60;;
1460;SDS011;724;49.910;12.530;2024-02-26T09:38:36;10.80;;;10.20;;
1460;SDS011;724;49.910;12.530;2024-02-26T09:41:04;11.10;;;10.50;;
1460;SDS011;724;49.910;12.530;2024-02-26T09:43:33;11.40;;;10.80;;
1460;SDS011;724;49.910;12.530;2024-02-26T09:46:02;11.90;;;11.30;;
1460;SDS011;724;49.910;12.530;2024-02-26T09:48:30;11.60;;;11.00;;
1460;SDS011;724;49.910;12.530;2024-02-26T09:50:58;11.75;;;11.15;;
1460;SDS011;724;49.910;12.530;2024-02-26T09:53:25;12.20;;;11.60;;
1460;SDS011;724;49.910;12.530;2024-02-26T09:55:53;12.00;;;11.40;;
1460;SDS011;724;49.910;12.530;2024-02-26T09:58:20;12.13;;;11.52;;
1460;SDS011;724;49.910;12.530;2024-02-26T10:00:51;12.20;;;11.60;;
1460;SDS011;724;49.910;12.530;2024-02-26T10:03:27;12.30;;;11.70;;
1460;SDS011;724;49.910;12.530;2024-02-26T10:05:57;12.75;;;12.05;;
1460;SDS011;724;49.910;12.530;2024-02-26T10:08:24;12.90;;;12.20;;
1460;SDS011;724;49.910;12.530;2024-02-26T10:10:53;12.90;;;12.20;;
1460;SDS011;724;49.910;12.530;2024-02-26T10:13:21;13.15;;;12.45;;
1460;SDS011;724;49.910;12.530;2024-02-26T10:15:48;13.43;;;12.73;;
1460;SDS011;724;49.910;12.530;2024-02-26T10:18:15;13.07;;;12.38;;
1460;SDS011;724;49.910;12.530;2024-02-26T10:20:43;13.35;;;12.65;;
1460;SDS011;724;49.910;12.530;2024-02-26T10:23:25;13.60;;;12.90;;
1460;SDS011;724;49.910;12.530;2024-02-26T10:25:52;13.60;;;12.90;;
1460;SDS011;724;49.910;12.530;2024-02-26T10:28:19;13.90;;;13.20;;
1460;SDS011;724;49.910;12.530;2024-02-26T10:30:46;13.90;;;13.20;;
1460;SDS011;724;49.910;12.530;2024-02-26T10:33:13;14.40;;;13.70;;
1460;SDS011;724;49.910;12.530;2024-02-26T10:35:40;14.20;;;13.50;;
1460;SDS011;724;49.910;12.530;2024-02-26T10:38:13;14.00;;;13.30;;
1460;SDS011;724;49.910;12.530;2024-02-26T10:40:45;14.30;;;13.60;;
1460;SDS011;724;49.910;12.530;2024-02-26T10:43:12;14.23;;;13.52;;
1460;SDS011;724;49.910;12.530;2024-02-26T10:45:39;14.00;;;13.30;;
1460;SDS011;724;49.910;12.530;2024-02-26T10:48:09;14.40;;;13.70;;
1460;SDS011;724;49.910;12.530;2024-02-26T10:50:37;14.60;;;13.90;;
1460;SDS011;724;49.910;12.530;2024-02-26T10:53:07;14.48;;;13.77;;
1460;SDS011;724;49.910;12.530;2024-02-26T10:55:40;14.40;;;13.70;;
1460;SDS011;724;49.910;12.530;2024-02-26T10:58:07;14.82;;;14.02;;
1460;SDS011;724;49.910;12.530;2024-02-26T11:00:36;15.10;;;14.30;;
1460;SDS011;724;49.910;12.530;2024-02-26T11:03:05;14.18;;;13.48;;
1460;SDS011;724;49.910;12.530;2024-02-26T11:05:34;14.95;;;14.15;;
1460;SDS011;724;49.910;12.530;2024-02-26T11:08:02;14.32;;;13.63;;
1460;SDS011;724;49.910;12.530;2024-02-26T11:10:31;15.20;;;14.40;;
1460;SDS011;724;49.910;12.530;2024-02-26T11:12:59;15.25;;;14.45;;
1460;SDS011;724;49.910;12.530;2024-02-26T11:15:27;15.20;;;14.40;;
1460;SDS011;724;49.910;12.530;2024-02-26T11:17:57;14.48;;;13.77;;
1460;SDS011;724;49.910;12.530;2024-02-26T11:20:24;15.43;;;14.63;;
1460;SDS011;724;49.910;12.530;2024-02-26T11:22:54;15.25;;;14.45;;
1460;SDS011;724;49.910;12.530;2024-02-26T11:25:21;14.95;;;14.15;;
1460;SDS011;724;49.910;12.530;2024-02-26T11:27:50;15.10;;;14.30;;
1460;SDS011;724;49.910;12.530;2024-02-26T11:30:19;14.90;;;14.10;;
1460;SDS011;724;49.910;12.530;2024-02-26T11:32:48;15.05;;;14.25;;
1460;SDS011;724;49.910;12.530;2024-02-26T11:35:15;15.30;;;14.50;;
1460;SDS011;724;49.910;12.530;2024-02-26T11:37:51;15.20;;;14.40;;
1460;SDS011;724;49.910;12.530;2024-02-26T11:40:19;14.90;;;14.10;;
1460;SDS011;724;49.910;12.530;2024-02-26T11:42:46;15.10;;;14.30;;
1460;SDS011;724;49.910;12.530;2024-02-26T11:48:21;14.85;;;14.05;;
1460;SDS011;724;49.910;12.530;2024-02-26T11:50:49;15.40;;;14.60;;
1460;SDS011;724;49.910;12.530;2024-02-26T11:53:21;15.20;;;14.40;;
1460;SDS011;724;49.910;12.530;2024-02-26T11:56:03;15.50;;;14.70;;
1460;SDS011;724;49.910;12.530;2024-02-26T11:58:47;15.40;;;14.60;;
1460;SDS011;724;49.910;12.530;2024-02-26T12:04:13;15.40;;;14.60;;
1460;SDS011;724;49.910;12.530;2024-02-26T12:06:43;15.60;;;14.80;;
1460;SDS011;724;49.910;12.530;2024-02-26T12:09:11;15.80;;;15.00;;
1460;SDS011;724;49.910;12.530;2024-02-26T12:11:39;16.17;;;15.38;;
1460;SDS011;724;49.910;12.530;2024-02-26T12:14:07;15.93;;;15.13;;
1460;SDS011;724;49.910;12.530;2024-02-26T12:16:35;15.90;;;15.10;;
1460;SDS011;724;49.910;12.530;2024-02-26T12:19:05;16.00;;;15.20;;
1460;SDS011;724;49.910;12.530;2024-02-26T12:21:33;16.05;;;15.25;;
1460;SDS011;724;49.910;12.530;2024-02-26T12:24:10;16.00;;;15.20;;
1460;SDS011;724;49.910;12.530;2024-02-26T12:26:40;16.30;;;15.50;;
1460;SDS011;724;49.910;12.530;2024-02-26T12:29:07;16.30;;;15.50;;
1460;SDS011;724;49.910;12.530;2024-02-26T12:31:34;16.10;;;15.30;;
1460;SDS011;724;49.910;12.530;2024-02-26T12:34:04;16.50;;;15.70;;
1460;SDS011;724;49.910;12.530;2024-02-26T12:36:32;16.20;;;15.40;;
1460;SDS011;724;49.910;12.530;2024-02-26T12:39:00;16.42;;;15.63;;
1460;SDS011;724;49.910;12.530;2024-02-26T12:41:28;16.20;;;15.40;;
1460;SDS011;724;49.910;12.530;2024-02-26T12:43:55;16.10;;;15.30;;
1460;SDS011;724;49.910;12.530;2024-02-26T12:46:23;16.50;;;15.70;;
1460;SDS011;724;49.910;12.530;2024-02-26T12:48:50;16.90;;;16.00;;
1460;SDS011;724;49.910;12.530;2024-02-26T12:51:18;16.90;;;16.00;;
1460;SDS011;724;49.910;12.530;2024-02-26T12:53:46;16.90;;;16.00;;
1460;SDS011;724;49.910;12.530;2024-02-26T12:56:15;16.80;;;15.95;;
1460;SDS011;724;49.910;12.530;2024-02-26T12:58:45;16.70;;;15.90;;
1460;SDS011;724;49.910;12.530;2024-02-26T13:01:15;16.90;;;16.00;;
1460;SDS011;724;49.910;12.530;2024-02-26T13:03:44;16.90;;;16.00;;
1460;SDS011;724;49.910;12.530;2024-02-26T13:06:11;16.70;;;15.90;;
1460;SDS011;724;49.910;12.530;2024-02-26T13:08:39;16.80;;;15.95;;
1460;SDS011;724;49.910;12.530;2024-02-26T13:11:06;16.90;;;16.00;;
1460;SDS011;724;49.910;12.530;2024-02-26T13:13:33;17.10;;;16.20;;
1460;SDS011;724;49.910;12.530;2024-02-26T13:16:01;17.10;;;16.20;;
1460;SDS011;724;49.910;12.530;2024-02-26T13:18:29;16.67;;;15.88;;
1460;SDS011;724;49.910;12.530;2024-02-26T13:21:06;17.10;;;16.20;;
1460;SDS011;724;49.910;12.530;2024-02-26T13:23:34;16.85;;;15.98;;
1460;SDS011;724;49.910;12.530;2024-02-26T13:26:03;17.02;;;16.13;;
1460;SDS011;724;49.910;12.530;2024-02-26T13:28:29;17.10;;;16.20;;
1460;SDS011;724;49.910;12.530;2024-02-26T13:30:57;17.10;;;16.20;;
1460;SDS011;724;49.910;12.530;2024-02-26T13:33:26;17.10;;;16.20;;
1460;SDS011;724;49.910;12.530;2024-02-26T13:35:53;16.85;;;15.98;;
1460;SDS011;724;49.910;12.530;2024-02-26T13:38:21;17.20;;;16.30;;
1460;SDS011;724;49.910;12.530;2024-02-26T13:40:47;16.70;;;15.90;;
1460;SDS011;724;49.910;12.530;2024-02-26T13:43:15;16.90;;;16.00;;
1460;SDS011;724;49.910;12.530;2024-02-26T13:45:42;16.27;;;15.48;;
1460;SDS011;724;49.910;12.530;2024-02-26T13:48:10;16.90;;;16.00;;
1460;SDS011;724;49.910;12.530;2024-02-26T13:50:37;16.70;;;15.90;;
1460;SDS011;724;49.910;12.530;2024-02-26T13:53:04;16.30;;;15.50;;
1460;SDS011;724;49.910;12.530;2024-02-26T13:55:31;16.00;;;15.20;;
1460;SDS011;724;49.910;12.530;2024-02-26T13:57:59;16.08;;;15.27;;
1460;SDS011;724;49.910;12.530;2024-02-26T14:00:28;16.20;;;15.40;;
1460;SDS011;724;49.910;12.530;2024-02-26T14:02:58;16.30;;;15.50;;
1460;SDS011;724;49.910;12.530;2024-02-26T14:05:25;16.30;;;15.50;;
1460;SDS011;724;49.910;12.530;2024-02-26T14:07:52;16.20;;;15.40;;
1460;SDS011;724;49.910;12.530;2024-02-26T14:10:19;16.50;;;15.70;;
1460;SDS011;724;49.910;12.530;2024-02-26T14:12:46;16.60;;;15.80;;
1460;SDS011;724;49.910;12.530;2024-02-26T14:15:13;16.50;;;15.70;;
1460;SDS011;724;49.910;12.530;2024-02-26T14:17:41;16.15;;;15.35;;
1460;SDS011;724;49.910;12.530;2024-02-26T14:20:09;16.00;;;15.20;;
1460;SDS011;724;49.910;12.530;2024-02-26T14:22:36;16.25;;;15.45;;
1460;SDS011;724;49.910;12.530;2024-02-26T14:25:03;16.35;;;15.55;;
1460;SDS011;724;49.910;12.530;2024-02-26T14:27:30;16.10;;;15.30;;
1460;SDS011;724;49.910;12.530;2024-02-26T14:29:57;16.30;;;15.50;;
1460;SDS011;724;49.910;12.530;2024-02-26T14:32:23;16.50;;;15.70;;
1460;SDS011;724;49.910;12.530;2024-02-26T14:34:52;16.42;;;15.63;;
1460;SDS011;724;49.910;12.530;2024-02-26T14:37:18;16.70;;;15.90;;
1460;SDS011;724;49.910;12.530;2024-02-26T14:39:45;16.52;;;15.73;;
1460;SDS011;724;49.910;12.530;2024-02-26T14:42:13;16.98;;;16.08;;
1460;SDS011;724;49.910;12.530;2024-02-26T14:44:42;17.13;;;16.23;;
1460;SDS011;724;49.910;12.530;2024-02-26T14:47:09;17.02;;;16.13;;
1460;SDS011;724;49.910;12.530;2024-02-26T14:49:36;17.15;;;16.25;;
1460;SDS011;724;49.910;12.530;2024-02-26T14:52:04;16.98;;;16.08;;
1460;SDS011;724;49.910;12.530;2024-02-26T14:54:32;17.00;;;16.10;;
1460;SDS011;724;49.910;12.530;2024-02-26T14:57:02;16.40;;;15.60;;